Time;durP1;ratioP1;P1;durP2;ratioP2;P2;SDS_P1;SDS_P2;PMS_P1;PMS_P2;Temp;Humidity;BMP_temperature;BMP_pressure;BME280_temperature;BME280_humidity;BME280_pressure;Samples;Min_cycle;Max_cycle;Signal;HPM_P1;HPM_P2
2022/07/24 00:01:31;;;;;;;21.73;9.68;;;;;;;16.61;87.88;101726.97;5022351;28;20397;-75
2022/07/24 00:03:56;;;;;;;21.23;9.05;;;;;;;16.59;88.01;101724.38;5027262;28;20013;-75
2022/07/24 00:06:22;;;;;;;19.83;8.73;;;;;;;16.59;87.18;101728.97;5031708;28;20116;-75
2022/07/24 00:08:48;;;;;;;21.52;9.80;;;;;;;16.61;87.73;101726.97;5026763;28;20029;-75
2022/07/24 00:11:13;;;;;;;23.08;8.45;;;;;;;16.62;87.58;101722.38;5033589;28;20386;-75
2022/07/24 00:13:38;;;;;;;20.80;9.77;;;;;;;16.60;87.28;101723.41;5032461;28;20127;-75
2022/07/24 00:16:04;;;;;;;20.92;8.95;;;;;;;16.59;87.46;101720.81;5043881;28;20541;-75
2022/07/24 00:18:30;;;;;;;20.50;8.50;;;;;;;16.60;87.14;101715.25;5033136;28;20136;-75
2022/07/24 00:20:55;;;;;;;19.77;9.25;;;;;;;16.59;87.10;101712.69;5019291;28;20046;-75
2022/07/24 00:23:22;;;;;;;19.60;8.52;;;;;;;16.57;86.53;101709.22;5020368;28;20433;-75
2022/07/24 00:25:47;;;;;;;22.88;8.77;;;;;;;16.57;86.72;101709.22;5021732;28;20036;-75
2022/07/24 00:28:13;;;;;;;20.10;8.05;;;;;;;16.55;86.63;101717.50;5013487;28;20058;-75
2022/07/24 00:30:38;;;;;;;19.60;8.90;;;;;;;16.57;86.25;101710.09;5026980;28;20032;-75
2022/07/24 00:33:03;;;;;;;22.15;9.65;;;;;;;16.57;85.91;101712.81;5026817;28;20057;-75
2022/07/24 00:35:29;;;;;;;20.98;8.90;;;;;;;16.59;86.00;101707.25;5016327;28;20052;-75
2022/07/24 00:37:54;;;;;;;19.65;8.63;;;;;;;16.61;85.43;101710.69;5033212;28;20436;-75
2022/07/24 00:40:20;;;;;;;19.77;8.70;;;;;;;16.64;85.16;101721.28;5018410;28;20486;-75
2022/07/24 00:42:45;;;;;;;21.05;9.13;;;;;;;16.68;85.22;101711.03;5032825;28;20022;-75
2022/07/24 00:45:11;;;;;;;20.70;9.65;;;;;;;16.74;85.39;101718.66;5024984;28;20079;-75
2022/07/24 00:47:36;;;;;;;20.63;9.23;;;;;;;16.77;83.98;101716.50;5030589;28;20435;-75
2022/07/24 00:50:04;;;;;;;19.27;8.63;;;;;;;16.83;84.52;101717.84;5020846;28;20034;-75
2022/07/24 00:52:30;;;;;;;19.95;9.10;;;;;;;16.87;84.19;101719.34;5022956;28;20377;-75
2022/07/24 00:54:55;;;;;;;23.40;10.10;;;;;;;16.90;83.95;101712.78;5031794;28;20545;-75
2022/07/24 00:57:20;;;;;;;19.10;8.93;;;;;;;16.92;83.74;101708.94;5032277;28;20112;-75
2022/07/24 00:59:46;;;;;;;20.05;9.15;;;;;;;16.93;83.36;101707.09;5027595;28;20017;-75
2022/07/24 01:02:11;;;;;;;21.05;8.82;;;;;;;16.94;82.69;101711.50;5030266;28;20025;-75
2022/07/24 01:04:38;;;;;;;21.75;8.95;;;;;;;16.93;83.19;101716.09;5032524;28;20037;-75
2022/07/24 01:07:03;;;;;;;20.15;8.73;;;;;;;16.95;82.25;101713.25;5031622;28;20164;-75
2022/07/24 01:09:28;;;;;;;24.02;9.48;;;;;;;16.96;82.63;101706.81;5030185;28;20072;-75
2022/07/24 01:11:55;;;;;;;20.50;8.95;;;;;;;16.97;81.99;101711.28;5033605;28;20485;-75
2022/07/24 01:14:20;;;;;;;22.60;8.75;;;;;;;16.97;83.05;101700.41;5032728;28;20091;-75
2022/07/24 01:16:45;;;;;;;19.15;8.68;;;;;;;16.99;82.64;101701.13;5029212;28;20064;-75
2022/07/24 01:19:11;;;;;;;18.20;8.40;;;;;;;16.99;83.24;101708.41;5031905;28;20038;-75
2022/07/24 01:21:36;;;;;;;21.45;9.48;;;;;;;17.01;82.28;101715.41;5025883;28;20029;-75
2022/07/24 01:24:02;;;;;;;20.25;8.52;;;;;;;17.05;81.87;101710.59;5031841;28;20104;-75
2022/07/24 01:26:27;;;;;;;21.88;9.43;;;;;;;17.07;81.64;101703.16;5020476;28;20029;-75
2022/07/24 01:28:52;;;;;;;19.98;9.75;;;;;;;17.07;81.61;101706.75;5027006;28;20042;-75
2022/07/24 01:31:18;;;;;;;20.77;10.55;;;;;;;17.07;80.80;101706.75;5020009;28;20033;-75
2022/07/24 01:33:43;;;;;;;25.30;11.43;;;;;;;17.04;80.72;101704.31;5032193;28;20026;-75
2022/07/24 01:36:08;;;;;;;21.38;10.80;;;;;;;17.05;80.86;101703.28;5021937;28;20029;-75
2022/07/24 01:38:34;;;;;;;21.30;10.63;;;;;;;17.00;81.29;101700.13;5014890;28;20083;-75
2022/07/24 01:40:59;;;;;;;23.48;10.07;;;;;;;16.97;81.28;101705.84;5036013;28;20128;-75
2022/07/24 01:43:24;;;;;;;21.30;10.15;;;;;;;16.95;81.53;101707.81;5029717;28;20021;-75
2022/07/24 01:45:50;;;;;;;24.38;10.18;;;;;;;16.88;81.74;101702.06;5030397;28;20434;-75
2022/07/24 01:48:16;;;;;;;22.15;10.32;;;;;;;16.83;82.49;101692.56;5031301;28;20485;-75
2022/07/24 01:50:41;;;;;;;21.83;10.70;;;;;;;16.77;82.61;101691.22;5030454;28;20033;-75
2022/07/24 01:53:06;;;;;;;22.80;11.18;;;;;;;16.75;82.99;101691.38;5030040;28;20535;-75
2022/07/24 01:55:32;;;;;;;24.15;11.50;;;;;;;16.70;82.92;101687.31;5031066;28;20040;-75
2022/07/24 01:57:57;;;;;;;22.52;11.50;;;;;;;16.63;82.46;101686.13;5027506;28;20497;-75
2022/07/24 02:00:23;;;;;;;20.95;11.15;;;;;;;16.55;83.43;101687.63;5038684;28;20030;-75
2022/07/24 02:02:48;;;;;;;22.00;11.02;;;;;;;16.46;83.79;101691.16;5031338;28;20104;-75
2022/07/24 02:05:14;;;;;;;22.40;11.27;;;;;;;16.40;83.95;101689.81;5029321;28;20048;-75
2022/07/24 02:07:41;;;;;;;22.45;11.05;;;;;;;16.37;84.71;101690.06;5030944;28;20041;-75
2022/07/24 02:10:06;;;;;;;23.35;11.48;;;;;;;16.34;84.66;101681.31;5030654;28;20478;-75
2022/07/24 02:12:32;;;;;;;22.13;10.70;;;;;;;16.30;85.17;101686.16;5027419;28;20087;-75
2022/07/24 02:14:57;;;;;;;23.05;10.82;;;;;;;16.23;85.35;101691.22;5031577;28;20120;-75
2022/07/24 02:17:22;;;;;;;23.02;11.43;;;;;;;16.18;85.47;101692.59;5031989;28;20029;-75
2022/07/24 02:19:48;;;;;;;22.25;10.82;;;;;;;16.11;85.55;101692.28;5024273;28;20032;-75
2022/07/24 02:22:13;;;;;;;21.35;11.10;;;;;;;16.04;85.60;101689.19;5030261;28;20052;-75
2022/07/24 02:24:38;;;;;;;23.85;12.63;;;;;;;15.97;85.98;101685.25;5028850;28;20129;-75
2022/07/24 02:27:03;;;;;;;23.17;11.93;;;;;;;15.93;86.45;101678.41;5029100;28;20474;-75
2022/07/24 02:29:29;;;;;;;24.00;12.20;;;;;;;15.87;86.26;101687.03;5025957;28;20083;-75
2022/07/24 02:31:54;;;;;;;24.42;12.15;;;;;;;15.81;86.81;101691.13;5025930;28;20061;-75
2022/07/24 02:34:19;;;;;;;22.42;11.85;;;;;;;15.78;87.01;101690.47;5030636;28;20069;-75
2022/07/24 02:36:45;;;;;;;23.55;12.23;;;;;;;15.73;87.15;101689.00;5021994;28;20072;-75
2022/07/24 02:39:10;;;;;;;21.88;11.10;;;;;;;15.67;87.11;101694.91;5029996;28;20037;-75
2022/07/24 02:41:35;;;;;;;22.42;12.00;;;;;;;15.64;87.40;101689.75;5030977;28;20117;-75
2022/07/24 02:44:01;;;;;;;23.95;12.73;;;;;;;15.62;87.71;101696.28;5019050;28;20038;-75
2022/07/24 02:46:29;;;;;;;24.52;12.15;;;;;;;15.58;88.05;101698.38;5026167;28;20100;-75
2022/07/24 02:48:54;;;;;;;23.20;12.50;;;;;;;15.57;88.23;101704.78;5033608;28;20033;-75
2022/07/24 02:51:19;;;;;;;23.48;11.43;;;;;;;15.55;88.01;101704.06;5031274;28;20120;-75
2022/07/24 02:53:45;;;;;;;23.20;11.68;;;;;;;15.56;87.60;101705.75;5033222;28;20473;-75
2022/07/24 02:56:10;;;;;;;20.90;11.50;;;;;;;15.55;88.44;101706.75;5034358;28;20025;-75
2022/07/24 02:58:35;;;;;;;23.48;11.63;;;;;;;15.51;87.74;101702.56;5034424;28;20037;-75
2022/07/24 03:01:01;;;;;;;24.48;12.68;;;;;;;15.51;87.97;101695.28;5034111;28;20119;-75
2022/07/24 03:03:26;;;;;;;23.17;12.93;;;;;;;15.51;88.09;101700.72;5033662;28;20113;-75
2022/07/24 03:05:51;;;;;;;22.58;12.00;;;;;;;15.51;87.96;101694.44;5035911;28;20022;-75
2022/07/24 03:08:17;;;;;;;27.98;13.65;;;;;;;15.50;88.06;101687.28;5031910;28;21228;-75
2022/07/24 03:10:42;;;;;;;23.10;12.90;;;;;;;15.51;88.11;101689.03;5044554;28;20116;-75
2022/07/24 03:13:08;;;;;;;23.25;12.60;;;;;;;15.51;88.53;101683.59;5032857;28;20025;-75
2022/07/24 03:15:33;;;;;;;25.35;13.43;;;;;;;15.52;88.34;101685.31;5034321;28;20500;-75
2022/07/24 03:17:58;;;;;;;22.98;12.50;;;;;;;15.51;88.51;101683.59;5034027;28;20029;-75
2022/07/24 03:20:26;;;;;;;27.10;14.27;;;;;;;15.49;88.18;101688.28;5020340;28;20065;-75
2022/07/24 03:22:51;;;;;;;23.75;12.98;;;;;;;15.50;88.52;101690.84;5035446;28;20029;-75
2022/07/24 03:25:17;;;;;;;25.30;13.68;;;;;;;15.51;88.15;101689.03;5032048;28;20064;-75
2022/07/24 03:27:45;;;;;;;25.25;14.27;;;;;;;15.49;87.91;101681.03;5022976;28;20137;-75
2022/07/24 03:30:10;;;;;;;26.70;15.73;;;;;;;15.50;88.29;101692.72;5028785;28;20516;-75
2022/07/24 03:32:36;;;;;;;24.98;15.32;;;;;;;15.45;88.82;101684.97;5034206;28;20041;-75
2022/07/24 03:35:02;;;;;;;25.88;14.05;;;;;;;15.44;88.52;101690.50;5033688;28;20017;-75
2022/07/24 03:37:27;;;;;;;25.52;15.60;;;;;;;15.38;88.53;101684.59;5033408;28;20075;-75
2022/07/24 03:39:53;;;;;;;26.63;14.63;;;;;;;15.38;88.70;101683.72;5022383;28;20025;-75
2022/07/24 03:42:19;;;;;;;28.15;15.70;;;;;;;15.37;88.39;101693.72;5033138;28;20079;-75
2022/07/24 03:44:44;;;;;;;26.80;15.20;;;;;;;15.36;89.07;101696.56;5033306;28;20120;-75
2022/07/24 03:47:09;;;;;;;27.70;17.17;;;;;;;15.36;89.02;101685.72;5033410;28;20029;-75
2022/07/24 03:49:35;;;;;;;26.30;15.93;;;;;;;15.40;88.91;101675.47;5029657;28;20038;-75
2022/07/24 03:52:00;;;;;;;27.33;16.75;;;;;;;15.37;88.81;101677.47;5026850;28;20095;-75
2022/07/24 03:54:25;;;;;;;25.67;16.00;;;;;;;15.36;89.08;101675.72;5028865;28;20032;-75
2022/07/24 03:56:51;;;;;;;31.08;15.45;;;;;;;15.35;88.84;101676.72;5032102;28;20039;-75
2022/07/24 03:59:16;;;;;;;25.38;15.68;;;;;;;15.35;89.12;101673.16;5031977;28;20028;-75
2022/07/24 04:01:41;;;;;;;27.15;16.90;;;;;;;15.37;89.59;101671.16;5033583;28;20493;-75
2022/07/24 04:04:07;;;;;;;28.33;17.90;;;;;;;15.38;88.90;101672.91;5033192;28;20029;-75
2022/07/24 04:06:33;;;;;;;27.40;17.80;;;;;;;15.37;89.59;101677.47;5033699;28;20029;-75
2022/07/24 04:09:00;;;;;;;28.65;17.77;;;;;;;15.40;89.73;101676.31;5030243;28;20370;-75
2022/07/24 04:11:26;;;;;;;29.45;19.42;;;;;;;15.40;89.72;101679.03;5020551;28;20068;-75
2022/07/24 04:13:51;;;;;;;28.60;18.75;;;;;;;15.44;89.96;101671.53;5028850;28;20470;-75
2022/07/24 04:16:17;;;;;;;32.15;19.13;;;;;;;15.45;89.81;101668.72;5032601;28;20392;-75
2022/07/24 04:18:42;;;;;;;29.67;20.08;;;;;;;15.48;90.47;101671.16;5034867;28;20025;-75
2022/07/24 04:21:07;;;;;;;32.67;21.48;;;;;;;15.50;90.50;101674.59;5029047;28;20033;-75
2022/07/24 04:23:33;;;;;;;30.70;19.52;;;;;;;15.52;90.43;101669.06;5031683;28;20113;-75
2022/07/24 04:25:58;;;;;;;31.95;21.95;;;;;;;15.57;90.53;101682.25;5034133;28;20048;-75
2022/07/24 04:28:24;;;;;;;31.85;22.40;;;;;;;15.57;90.63;101680.41;5026041;28;20080;-75
2022/07/24 04:30:49;;;;;;;33.22;22.13;;;;;;;15.61;90.94;101683.69;5029248;28;20505;-75
2022/07/24 04:33:14;;;;;;;33.90;23.10;;;;;;;15.63;90.97;101685.31;5026375;28;20033;-75
2022/07/24 04:35:39;;;;;;;33.95;23.27;;;;;;;15.67;90.69;101685.94;5032650;28;20040;-75
2022/07/24 04:38:05;;;;;;;36.88;23.30;;;;;;;15.70;90.63;101683.81;5031210;28;20034;-75
2022/07/24 04:40:30;;;;;;;35.50;23.90;;;;;;;15.72;90.85;101689.13;5031254;28;20499;-75
2022/07/24 04:42:55;;;;;;;38.22;23.75;;;;;;;15.75;90.85;101691.56;5032334;28;20022;-75
2022/07/24 04:45:21;;;;;;;33.50;23.73;;;;;;;15.77;90.89;101689.63;5025531;28;20453;-75
2022/07/24 04:47:46;;;;;;;38.35;26.20;;;;;;;15.77;91.44;101686.91;5025645;28;20026;-75
2022/07/24 04:50:12;;;;;;;32.47;24.92;;;;;;;15.78;90.99;101690.47;5019675;28;20029;-75
2022/07/24 04:52:37;;;;;;;37.97;26.77;;;;;;;15.81;91.06;101695.66;5027573;28;20477;-75
2022/07/24 04:55:03;;;;;;;41.72;27.20;;;;;;;15.84;91.16;101689.97;5016373;28;20025;-75
2022/07/24 04:57:28;;;;;;;37.38;26.63;;;;;;;15.87;91.20;101695.16;5031299;28;20083;-75
2022/07/24 04:59:53;;;;;;;39.20;27.55;;;;;;;15.90;91.19;101694.91;5029231;28;20025;-75
2022/07/24 05:02:18;;;;;;;38.92;27.48;;;;;;;15.93;91.46;101688.38;5029756;28;20049;-75
2022/07/24 05:04:44;;;;;;;41.42;30.42;;;;;;;15.97;91.33;101698.81;5032435;28;20025;-75
2022/07/24 05:07:09;;;;;;;38.83;29.23;;;;;;;16.00;91.33;101685.03;5032205;28;20374;-75
2022/07/24 05:09:34;;;;;;;43.40;30.13;;;;;;;16.03;91.18;101673.94;5033293;28;20481;-75
2022/07/24 05:11:59;;;;;;;39.47;29.67;;;;;;;16.05;91.32;101681.94;5031683;28;20037;-75
2022/07/24 05:14:25;;;;;;;37.88;29.08;;;;;;;16.10;91.93;101684.25;5032581;28;20014;-75
2022/07/24 05:16:50;;;;;;;38.38;28.77;;;;;;;16.13;91.66;101679.44;5032818;28;20044;-75
2022/07/24 05:19:15;;;;;;;41.45;29.95;;;;;;;16.19;91.53;101686.19;5031620;28;20029;-75
2022/07/24 05:21:41;;;;;;;40.40;30.02;;;;;;;16.24;91.30;101692.09;5024361;28;20095;-75
2022/07/24 05:24:06;;;;;;;39.47;29.85;;;;;;;16.27;91.22;101689.13;5031291;28;20377;-75
2022/07/24 05:26:32;;;;;;;38.58;28.30;;;;;;;16.29;91.34;101687.13;5046527;28;20052;-75
2022/07/24 05:28:58;;;;;;;38.42;28.33;;;;;;;16.33;91.33;101695.91;5043175;28;20072;-75
2022/07/24 05:31:25;;;;;;;38.08;28.30;;;;;;;16.38;91.49;101699.94;5031345;28;20023;-75
2022/07/24 05:33:50;;;;;;;38.22;27.35;;;;;;;16.42;91.24;101697.81;5031043;28;20028;-75
2022/07/24 05:36:15;;;;;;;39.33;28.63;;;;;;;16.48;91.27;101699.16;5030967;28;20033;-75
2022/07/24 05:38:41;;;;;;;41.80;28.73;;;;;;;16.54;90.79;101704.91;5032801;28;20033;-75
2022/07/24 05:41:06;;;;;;;43.92;29.90;;;;;;;16.59;90.74;101704.53;5031522;28;20021;-75
2022/07/24 05:43:32;;;;;;;46.67;31.70;;;;;;;16.63;90.79;101708.69;5031458;28;20072;-75
2022/07/24 05:45:57;;;;;;;39.08;28.75;;;;;;;16.68;90.12;101705.59;5032051;28;20087;-75
2022/07/24 05:48:22;;;;;;;37.47;27.10;;;;;;;16.73;90.20;101708.78;5032223;28;20034;-75
2022/07/24 05:50:47;;;;;;;42.25;30.38;;;;;;;16.76;89.96;101701.25;5018855;28;20025;-75
2022/07/24 05:53:13;;;;;;;40.17;28.50;;;;;;;16.82;89.52;101710.69;5027012;28;20026;-75
2022/07/24 05:55:38;;;;;;;42.60;29.25;;;;;;;16.86;89.03;101708.59;5040603;28;20055;-75
2022/07/24 05:58:03;;;;;;;39.10;27.98;;;;;;;16.91;89.16;101706.34;5050704;28;20071;-75
2022/07/24 06:00:29;;;;;;;38.85;27.63;;;;;;;16.96;88.90;101704.09;5051339;28;20390;-75
2022/07/24 06:02:54;;;;;;;38.22;27.88;;;;;;;17.01;88.84;101707.25;5050591;28;20025;-75
2022/07/24 06:05:20;;;;;;;37.80;25.67;;;;;;;17.06;88.13;101710.44;5041711;28;20034;-75
2022/07/24 06:07:45;;;;;;;40.72;26.60;;;;;;;17.12;87.81;101722.66;5030920;28;20036;-75
2022/07/24 06:10:12;;;;;;;39.50;25.48;;;;;;;17.16;86.97;101717.78;5021438;28;20040;-75
2022/07/24 06:12:37;;;;;;;34.15;25.23;;;;;;;17.20;86.44;101711.94;5024648;28;20036;-75
2022/07/24 06:15:03;;;;;;;36.20;25.25;;;;;;;17.25;86.40;101708.84;5030889;28;20462;-75
2022/07/24 06:17:28;;;;;;;36.15;25.50;;;;;;;17.31;86.39;101708.31;5032859;28;20469;-75
2022/07/24 06:19:53;;;;;;;37.10;25.63;;;;;;;17.38;86.48;101716.75;5026051;28;20034;-75
2022/07/24 06:22:19;;;;;;;36.45;25.45;;;;;;;17.44;86.49;101724.38;5029948;28;20603;-75
2022/07/24 06:24:44;;;;;;;37.67;25.52;;;;;;;17.49;85.20;101718.53;5034060;28;20032;-75
2022/07/24 06:27:09;;;;;;;33.78;23.02;;;;;;;17.55;85.00;101709.81;5020151;28;20111;-75
2022/07/24 06:29:34;;;;;;;38.45;23.45;;;;;;;17.61;84.22;101715.59;5026116;28;20096;-75
2022/07/24 06:32:00;;;;;;;34.00;23.65;;;;;;;17.67;84.94;101714.16;5033862;28;20530;-75
2022/07/24 06:34:25;;;;;;;36.97;23.88;;;;;;;17.73;85.08;101719.06;5032910;28;20075;-75
2022/07/24 06:36:51;;;;;;;33.83;21.65;;;;;;;17.78;84.76;101724.09;5035567;28;20091;-75
2022/07/24 06:39:17;;;;;;;32.55;20.20;;;;;;;17.81;84.17;101726.53;5034804;28;20034;-75
2022/07/24 06:41:42;;;;;;;31.17;21.08;;;;;;;17.89;84.42;101723.97;5018766;28;20057;-75
2022/07/24 06:44:07;;;;;;;29.98;19.88;;;;;;;17.95;83.76;101714.41;5033640;28;20101;-75
2022/07/24 06:46:33;;;;;;;31.30;19.10;;;;;;;18.01;82.01;101715.72;5034125;28;20374;-75
2022/07/24 06:48:58;;;;;;;30.75;19.55;;;;;;;18.08;81.16;101715.03;5035173;28;20037;-75
2022/07/24 06:51:23;;;;;;;27.85;15.35;;;;;;;18.13;80.71;101715.44;5020341;28;20033;-75
2022/07/24 06:53:49;;;;;;;27.95;15.57;;;;;;;18.19;80.04;101715.91;5033774;28;20552;-76
2022/07/24 06:56:14;;;;;;;26.95;15.98;;;;;;;18.26;79.46;101706.16;5033729;28;20033;-76
2022/07/24 06:58:39;;;;;;;27.27;16.45;;;;;;;18.32;79.52;101708.31;5035145;28;20025;-76
2022/07/24 07:01:05;;;;;;;27.17;13.20;;;;;;;18.32;78.60;101708.31;5028610;28;20168;-75
2022/07/24 07:03:30;;;;;;;22.23;11.45;;;;;;;18.34;77.92;101698.16;5030160;28;20029;-75
2022/07/24 07:05:55;;;;;;;19.83;8.88;;;;;;;18.37;77.74;101708.75;5022904;28;20068;-75
2022/07/24 07:08:20;;;;;;;24.27;12.95;;;;;;;18.44;77.90;101700.88;5024489;28;20021;-74
2022/07/24 07:10:46;;;;;;;20.60;9.20;;;;;;;18.45;77.22;101692.56;5024775;28;20021;-75
2022/07/24 07:13:11;;;;;;;20.85;8.77;;;;;;;18.50;77.56;101701.13;5024052;28;20061;-75
2022/07/24 07:15:36;;;;;;;18.75;7.63;;;;;;;18.51;76.83;101708.31;5024213;28;20037;-75
2022/07/24 07:18:02;;;;;;;24.10;8.18;;;;;;;18.55;77.12;101713.47;5023577;28;20040;-75
2022/07/24 07:20:27;;;;;;;20.73;7.63;;;;;;;18.57;76.67;101719.66;5025394;28;20374;-75
2022/07/24 07:22:52;;;;;;;21.60;8.88;;;;;;;18.64;75.66;101720.78;5021910;28;20041;-74
2022/07/24 07:25:18;;;;;;;19.55;7.55;;;;;;;18.68;75.32;101723.06;5023772;28;20525;-74
2022/07/24 07:27:43;;;;;;;20.33;7.75;;;;;;;18.76;71.97;101721.50;5025306;28;20056;-74
2022/07/24 07:30:09;;;;;;;18.95;7.60;;;;;;;18.84;70.99;101719.78;5023895;28;20033;-74
2022/07/24 07:32:35;;;;;;;20.38;7.88;;;;;;;18.91;70.57;101720.06;5023467;28;20068;-75
2022/07/24 07:35:00;;;;;;;17.80;7.60;;;;;;;18.94;70.98;101714.31;5022912;28;20033;-75
2022/07/24 07:37:26;;;;;;;19.00;7.25;;;;;;;19.01;69.51;101709.16;5025995;28;20044;-74
2022/07/24 07:39:51;;;;;;;19.77;7.68;;;;;;;19.09;69.00;101711.97;5035452;28;20091;-75
2022/07/24 07:42:16;;;;;;;19.45;7.05;;;;;;;19.19;68.71;101712.81;5038984;28;20022;-75
2022/07/24 07:44:41;;;;;;;16.30;6.25;;;;;;;19.30;67.87;101713.66;5024282;28;20029;-75
2022/07/24 07:47:07;;;;;;;18.73;6.82;;;;;;;19.35;66.92;101717.63;5021875;28;20029;-75
2022/07/24 07:49:32;;;;;;;13.80;5.15;;;;;;;19.46;67.62;101716.63;5022463;28;20041;-75
2022/07/24 07:51:57;;;;;;;14.77;5.25;;;;;;;19.55;65.53;101714.84;5024009;28;20025;-75
2022/07/24 07:54:23;;;;;;;12.00;4.60;;;;;;;19.63;63.35;101711.38;5023901;28;20575;-76
2022/07/24 07:56:48;;;;;;;11.57;4.00;;;;;;;19.65;61.24;101709.34;5022941;28;20057;-76
2022/07/24 07:59:13;;;;;;;12.70;3.97;;;;;;;19.67;63.95;101699.16;5023009;28;20071;-76
2022/07/24 08:01:39;;;;;;;10.75;3.60;;;;;;;19.74;64.32;101705.72;5032418;28;20029;-76
2022/07/24 08:04:04;;;;;;;13.45;4.10;;;;;;;19.83;63.24;101702.09;5033988;28;20021;-76
2022/07/24 08:06:30;;;;;;;12.70;4.40;;;;;;;19.90;64.20;101702.34;5025825;28;20040;-76
2022/07/24 08:08:55;;;;;;;13.82;5.00;;;;;;;19.96;65.04;101688.09;5020769;28;20023;-76
2022/07/24 08:11:20;;;;;;;13.85;4.85;;;;;;;20.00;63.84;101691.38;5024357;28;20028;-76
2022/07/24 08:13:45;;;;;;;14.43;4.63;;;;;;;20.05;64.21;101700.81;5023836;28;20088;-76
2022/07/24 08:16:11;;;;;;;12.07;4.25;;;;;;;20.12;63.65;101690.16;5021180;28;20484;-76
2022/07/24 08:18:36;;;;;;;14.45;4.95;;;;;;;20.20;64.38;101705.75;5020071;28;20030;-76
2022/07/24 08:21:02;;;;;;;13.45;4.50;;;;;;;20.28;63.19;101697.66;5020096;28;20022;-76
2022/07/24 08:23:27;;;;;;;16.08;4.95;;;;;;;20.35;62.46;101693.28;5018699;28;20041;-76
2022/07/24 08:25:53;;;;;;;14.43;4.47;;;;;;;20.35;62.58;101697.84;5020311;28;20032;-75
2022/07/24 08:28:18;;;;;;;11.57;4.03;;;;;;;20.34;64.61;101699.75;5034697;28;20052;-75
2022/07/24 08:30:43;;;;;;;11.90;4.10;;;;;;;20.38;65.46;101703.00;5021447;28;20396;-75
2022/07/24 08:33:09;;;;;;;13.38;4.53;;;;;;;20.36;65.30;101710.50;5021803;28;20509;-74
2022/07/24 08:35:35;;;;;;;13.85;4.72;;;;;;;20.46;64.04;101711.28;5021343;28;20116;-74
2022/07/24 08:38:01;;;;;;;15.55;5.30;;;;;;;20.47;64.57;101713.00;5017334;28;22031;-74
2022/07/24 08:40:33;;;;;;;13.80;4.50;;;;;;;20.48;65.57;101706.50;5020866;28;20021;-75
2022/07/24 08:42:59;;;;;;;12.63;4.70;;;;;;;20.54;63.32;101703.19;5022832;28;20107;-75
2022/07/24 08:45:24;;;;;;;17.88;5.43;;;;;;;20.56;65.11;101703.88;5022052;28;20057;-73
2022/07/24 08:47:51;;;;;;;12.30;4.70;;;;;;;20.60;64.23;101698.94;5020361;28;20040;-73
2022/07/24 08:50:16;;;;;;;12.50;4.47;;;;;;;20.62;64.89;101682.41;5024547;28;20025;-73
2022/07/24 08:52:42;;;;;;;13.73;4.88;;;;;;;20.68;63.21;101690.00;5028787;28;20021;-74
2022/07/24 08:55:07;;;;;;;13.77;5.03;;;;;;;20.70;63.55;101690.69;5029362;28;20029;-74
2022/07/24 08:57:33;;;;;;;13.20;4.80;;;;;;;20.82;64.50;101694.00;5028851;28;20025;-73
2022/07/24 08:59:59;;;;;;;13.32;3.92;;;;;;;20.75;66.50;101693.81;5025939;28;20065;-73
2022/07/24 09:02:24;;;;;;;16.30;5.03;;;;;;;20.85;63.01;101701.88;5019480;28;20057;-73
2022/07/24 09:04:51;;;;;;;15.13;5.18;;;;;;;20.88;61.88;101696.97;5022193;28;20065;-73
2022/07/24 09:07:18;;;;;;;15.68;4.82;;;;;;;20.94;63.94;101693.59;5024010;28;20378;-73
2022/07/24 09:09:58;;;;;;;14.48;4.97;;;;;;;21.03;64.86;101693.66;5022132;28;20017;-73
2022/07/24 09:12:23;;;;;;;15.68;5.47;;;;;;;21.03;63.97;101697.25;5018912;28;20120;-73
2022/07/24 09:14:48;;;;;;;11.63;4.40;;;;;;;21.13;63.91;101695.25;5022002;28;20109;-73
2022/07/24 09:17:17;;;;;;;14.55;5.10;;;;;;;21.16;63.01;101685.88;5020124;28;20029;-74
2022/07/24 09:19:51;;;;;;;12.20;4.68;;;;;;;21.16;64.06;101691.34;5022302;28;20065;-73
2022/07/24 09:22:30;;;;;;;14.80;4.97;;;;;;;21.20;63.85;101681.81;5020422;28;20091;-73
2022/07/24 09:25:17;;;;;;;13.02;5.13;;;;;;;21.25;64.32;101673.97;5023405;28;20508;-73
2022/07/24 09:27:57;;;;;;;12.48;4.40;;;;;;;21.28;63.96;101668.16;5022235;28;20092;-74
2022/07/24 09:30:27;;;;;;;15.25;5.10;;;;;;;21.33;62.36;101672.31;5016751;28;20033;-74
2022/07/24 09:32:53;;;;;;;15.90;5.10;;;;;;;21.35;64.03;101667.50;5022504;28;20362;-75
2022/07/24 09:35:22;;;;;;;14.15;4.53;;;;;;;21.37;62.54;101662.75;5019589;28;20065;-75
2022/07/24 09:37:58;;;;;;;10.00;4.32;;;;;;;21.39;65.05;101664.31;5018083;28;20551;-75
2022/07/24 09:40:29;;;;;;;13.60;4.60;;;;;;;21.43;63.98;101662.09;5020457;28;20105;-75
2022/07/24 09:43:24;;;;;;;12.48;4.68;;;;;;;21.51;63.69;101658.56;5019358;28;20033;-75
2022/07/24 09:46:05;;;;;;;9.98;4.00;;;;;;;21.53;64.24;101665.59;5019501;28;20080;-74
2022/07/24 09:48:33;;;;;;;10.77;4.03;;;;;;;21.52;62.43;101655.66;5019536;28;20057;-74
2022/07/24 09:51:02;;;;;;;14.55;5.05;;;;;;;21.62;63.45;101650.91;5019767;28;20021;-74
2022/07/24 09:53:29;;;;;;;;;;;;;;;21.60;64.85;101655.69;5018629;28;20032;-74
2022/07/24 09:56:07;;;;;;;13.52;4.57;;;;;;;21.67;62.37;101655.03;5019471;28;19968;-75
2022/07/24 09:58:39;;;;;;;11.57;3.80;;;;;;;21.67;64.40;101655.03;5019130;28;20033;-75
2022/07/24 10:01:07;;;;;;;10.20;3.95;;;;;;;21.67;64.01;101639.50;5018614;28;20118;-75
2022/07/24 10:03:38;;;;;;;9.90;4.18;;;;;;;21.72;64.29;101638.97;5018557;28;20026;-75
2022/07/24 10:06:06;;;;;;;9.25;3.67;;;;;;;21.77;62.68;101642.06;5018397;28;20477;-74
2022/07/24 10:08:33;;;;;;;10.07;4.15;;;;;;;21.77;62.54;101647.53;5017026;28;20073;-75
2022/07/24 10:10:59;;;;;;;11.85;3.97;;;;;;;21.88;61.04;101644.50;5019473;28;20049;-74
2022/07/24 10:13:27;;;;;;;10.23;3.95;;;;;;;21.85;61.89;101642.09;5018568;28;20030;-75
2022/07/24 10:16:11;;;;;;;9.35;4.00;;;;;;;21.93;62.48;101633.91;5023248;28;20604;-75
2022/07/24 10:19:01;;;;;;;9.82;3.97;;;;;;;21.93;63.12;101639.38;5018072;28;20033;-75
2022/07/24 10:21:30;;;;;;;9.20;3.45;;;;;;;21.93;61.32;101644.84;5016307;28;20096;-75
2022/07/24 10:24:05;;;;;;;11.70;4.53;;;;;;;22.05;60.81;101631.69;5021522;28;20033;-75
2022/07/24 10:26:41;;;;;;;12.73;4.50;;;;;;;22.16;59.69;101630.50;5029066;28;20112;-75
2022/07/24 10:29:10;;;;;;;11.40;4.40;;;;;;;22.14;59.59;101625.19;5029092;28;20084;-75
2022/07/24 10:31:43;;;;;;;10.02;4.10;;;;;;;22.18;61.19;101625.69;5038038;28;20113;-75
2022/07/24 10:34:23;;;;;;;11.23;4.28;;;;;;;22.19;62.03;101627.41;5015996;28;20076;-76
2022/07/24 10:36:51;;;;;;;;;;;;;;;22.25;61.98;101626.72;5029517;28;20430;-76
2022/07/24 10:39:36;;;;;;;12.07;4.20;;;;;;;22.29;60.82;101622.63;5027632;28;19913;-76
2022/07/24 10:42:04;;;;;;;11.65;4.00;;;;;;;22.35;58.46;101621.13;5032015;28;20351;-75
2022/07/24 10:44:30;;;;;;;13.27;4.53;;;;;;;22.39;59.64;101616.16;5031833;28;20473;-76
2022/07/24 10:46:56;;;;;;;12.68;4.20;;;;;;;22.44;59.00;101617.34;5030118;28;20025;-76
2022/07/24 10:49:44;;;;;;;10.63;4.30;;;;;;;22.48;59.05;101615.13;5027403;28;20029;-75
2022/07/24 10:52:39;;;;;;;10.30;4.38;;;;;;;22.51;59.58;101617.53;5028796;28;20267;-75
2022/07/24 10:55:26;;;;;;;11.13;4.60;;;;;;;22.55;59.55;101607.94;5026637;28;20048;-75
2022/07/24 10:58:01;;;;;;;10.95;4.35;;;;;;;22.60;58.88;101619.22;5030642;28;20036;-75
2022/07/24 11:00:38;;;;;;;11.15;4.10;;;;;;;22.58;59.39;101610.31;5029326;28;20045;-75
2022/07/24 11:03:18;;;;;;;13.48;4.35;;;;;;;22.62;58.56;101599.88;5021292;28;20397;-76
2022/07/24 11:06:01;;;;;;;10.05;3.85;;;;;;;22.54;61.11;101598.00;5024385;28;20029;-75
2022/07/24 11:08:30;;;;;;;9.52;3.97;;;;;;;22.64;60.02;101601.41;5022015;28;20031;-75
2022/07/24 11:11:04;;;;;;;10.38;4.05;;;;;;;22.63;60.01;101605.16;5029568;28;20028;-75
2022/07/24 11:13:32;;;;;;;11.45;4.60;;;;;;;22.77;60.25;101603.63;5033440;28;20522;-74